Tiempo atmosférico en la estación meteorológica de Blanes, Girona (60 m.)



Fecha
DESCASC
Temp. máxima en grados centígrados (hora)
DESCASC
Temp. mínima en grados centígrados (hora)
DESCASC
Temp. media en grados centígrados
DESCASC
Racha de viento máxima en m/sg (hora)
DESCASC
Velocidad máxima media en intervalos de 10 minutos(hora)
DESCASC
Precipitaciones diarias en mm
DESCASC
Precipitaciones de 00:00 a 06:00 en mm
DESCASC
Precipitaciones de 06:00 a 12:00 en mm
DESCASC
Precipitaciones de 12:00 a 18:00 en mm
DESCASC
Precipitaciones de 18:00 a 24:00 en mm
DESCASC
23-06-2019 25.4 (14:50) 18.4 (06:00) 21.9 13.33 (17:00) 8.61 (17:00) 0 0 0 0 0
22-06-2019 27.1 (13:30) 18.6 (05:00) 22.9 5.56 (16:50) 3.61 (02:30) 0 0 0 0 0
21-06-2019 26.5 (17:10) 18.6 (06:00) 22.6 8.06 (09:30) 5.28 (07:50) 0 0 0 0 0
20-06-2019 24.3 (14:20) 18.5 (00:00) 21.4 10 (13:30) 5.83 (15:10) 0 0 0 0 0
19-06-2019 -- (--) -- (--) -- -- (--) -- (--) -- 0 -- -- 0
18-06-2019 25.1 (12:40) 17.6 (00:00) 21.4 13.89 (14:20) 8.61 (16:10) 0 0 0 0 0
17-06-2019 25.8 (13:40) 17.3 (00:00) 21.5 6.94 (22:10) 3.33 (03:10) 0 0 0 0 0
16-06-2019 25.2 (16:20) 16.6 (00:00) 20.9 8.06 (13:30) 4.72 (13:20) 0 0 0 0 0
15-06-2019 23.7 (16:00) 17.3 (00:00) 20.5 11.67 (12:30) 7.78 (12:30) 0 0 0 0 0
14-06-2019 26.8 (15:10) 17.5 (00:00) 22.1 15.28 (19:10) 8.33 (11:30) 0 0 0 0 0
13-06-2019 22.9 (12:20) 13.9 (00:00) 18.4 7.78 (20:00) 5 (20:00) 0 0 0 0 0
12-06-2019 21.2 (16:20) 11.3 (00:00) 16.3 11.94 (16:30) 8.06 (17:00) 0 0 0 0 0
11-06-2019 18.1 (00:00) 11.8 (00:00) 15 7.78 (03:40) 4.17 (04:30) 19.4 0.4 6.4 9.8 2.8
10-06-2019 26.1 (13:20) 18.1 (00:00) 22.1 5.83 (07:50) 4.17 (07:50) 0 0 0 0 0
09-06-2019 25.8 (12:10) 19.2 (00:00) 22.5 9.72 (06:50) 6.39 (07:00) 0 0 0 0 0
08-06-2019 22.6 (10:40) 16.5 (00:00) 19.6 15.28 (13:30) 9.17 (13:20) 0 0 0 0 0
07-06-2019 25 (12:50) 16.3 (00:00) 20.6 12.22 (15:00) 7.5 (19:40) 0 0 0 0 0
06-06-2019 23.1 (11:50) 15.3 (00:00) 19.2 9.17 (10:10) 6.11 (10:50) 0 0 0 0 0
05-06-2019 24.8 (18:10) 16.1 (00:00) 20.4 11.94 (16:50) 7.22 (16:20) 0 0 0 0 0
04-06-2019 24 (16:20) 16.8 (00:00) 20.4 10.28 (13:30) 5 (13:20) 0 0 0 0 0
03-06-2019 23.8 (13:50) 16.7 (00:00) 20.3 12.78 (16:10) 6.67 (16:00) 0 0 0 0 0
02-06-2019 22.6 (15:30) 16.2 (00:00) 19.4 12.22 (14:10) 6.67 (14:10) 0 0 0 0 0
01-06-2019 24 (13:40) 16.5 (00:00) 20.3 10.83 (17:50) 6.39 (17:30) 0 0 0 0 0
31-05-2019 25.2 (15:00) 15.5 (00:00) 20.4 6.39 (19:50) 3.89 (19:40) 0 0 0 0 0
30-05-2019 22.8 (14:50) 13.1 (00:00) 17.9 8.06 (13:40) 4.72 (13:40) 0 0 0 0 0
29-05-2019 21.9 (16:00) 12.7 (00:00) 17.3 8.89 (16:40) 5.83 (16:40) 0.4 0.4 0 0 0
28-05-2019 21.3 (15:00) 13.5 (00:00) 17.4 6.11 (20:10) 3.61 (20:10) 9.6 0 0 0 9.6

Gráficas

Temp. máximas Temp. mínimas Temp. medias Precipitaciones Rachas de viento máximas Velocidades máximas media en intervalos de 10 minutos

Datos horarios

Fecha y hora oficial Temperatura (ºC) Velocidad del viento (km/h) Dirección del viento Racha (km/h) Dirección de racha Precipitación (mm) Presión (hPa) Tendencia (hPa) Humedad (%)
2019-06-26 23:00:00 24.8 0 Calma 4 Nordeste 0 -- -- 54
2019-06-26 22:00:00 24.6 0 Calma 4 Noroeste 0 -- -- 54
2019-06-26 21:00:00 24.6 3 Nordeste 14 Nordeste 0 -- -- 65
2019-06-26 20:00:00 25.1 8 Este 17 Este 0 -- -- 75
2019-06-26 19:00:00 25.9 8 Nordeste 23 Este 0 -- -- 71
2019-06-26 18:00:00 26 13 Nordeste 30 Este 0 -- -- 69
2019-06-26 17:00:00 26.5 15 Este 27 Este 0 -- -- 65
2019-06-26 16:00:00 27.5 9 Nordeste 21 Este 0 -- -- 64
2019-06-26 15:00:00 27.3 10 Nordeste 20 Este 0 -- -- 63
2019-06-26 14:00:00 27 12 Nordeste 31 Nordeste 0 -- -- 65
2019-06-26 13:00:00 27.5 13 Nordeste 27 Nordeste 0 -- -- 63
2019-06-26 12:00:00 27.6 14 Nordeste 30 Este 0 -- -- 61
2019-06-26 11:00:00 27.8 16 Este 27 Este 0 -- -- 54
2019-06-26 10:00:00 30.4 5 Norte 21 Norte 0 -- -- 40
2019-06-26 09:00:00 27.6 14 Norte 29 Norte 0 -- -- 45
2019-06-26 08:00:00 25.4 23 Norte 32 Norte 0 -- -- 50
2019-06-26 07:00:00 23.8 22 Norte 32 Noroeste 0 -- -- 57
2019-06-26 06:00:00 22.8 21 Norte 27 Norte 0 -- -- 61
2019-06-26 05:00:00 23.1 19 Norte 28 Norte 0 -- -- 62
2019-06-26 04:00:00 23.9 19 Norte 28 Norte 0 -- -- 59
2019-06-26 03:00:00 23.8 18 Norte 26 Norte 0 -- -- 61
2019-06-26 02:00:00 23.7 20 Norte 24 Norte 0 -- -- 63
2019-06-26 01:00:00 23.7 17 Norte 24 Norte 0 -- -- 64
2019-06-26 00:00:00 23.5 17 Norte 25 Nordeste 0 -- -- 67
2019-06-25 23:00:00 23.8 12 Norte 23 Nordeste 0 -- -- 67
2019-06-25 22:00:00 23.9 10 Nordeste 15 Nordeste 0 -- -- 69
2019-06-25 21:00:00 24.1 10 Nordeste 18 Este 0 -- -- 72
2019-06-25 20:00:00 24.8 11 Este 18 Este 0 -- -- 74
2019-06-25 19:00:00 25.2 10 Este 21 Este 0 -- -- 74
2019-06-25 18:00:00 25.7 12 Este 29 Este 0 -- -- 72
2019-06-25 17:00:00 25.2 23 Este 33 Este 0 -- -- 72
2019-06-25 16:00:00 25.6 19 Este 38 Este 0 -- -- 70
2019-06-25 15:00:00 25.4 22 Este 34 Nordeste 0 -- -- 68
2019-06-25 14:00:00 25.9 21 Este 41 Este 0 -- -- 62
2019-06-25 13:00:00 27.1 18 Este 30 Este 0 -- -- 59
2019-06-25 12:00:00 28.2 12 Nordeste 17 Este 0 -- -- 52
2019-06-25 11:00:00 27.2 9 Este 16 Este 0 -- -- 59
2019-06-25 10:00:00 26.6 9 Nordeste 21 Este 0 -- -- 59
2019-06-25 09:00:00 25.2 12 Nordeste 22 Noroeste 0 -- -- 62
2019-06-25 08:00:00 22.8 11 Norte 22 Norte 0 -- -- 69
2019-06-25 07:00:00 22.1 12 Norte 27 Norte 0 -- -- 72
2019-06-25 06:00:00 21.7 15 Norte 25 Norte 0 -- -- 74
2019-06-25 05:00:00 21.2 18 Norte 27 Norte 0 -- -- 75
2019-06-25 04:00:00 21.3 17 Norte 28 Norte 0 -- -- 77
2019-06-25 03:00:00 21.3 18 Norte 23 Norte 0 -- -- 79
2019-06-25 02:00:00 21.7 15 Norte 19 Norte 0 -- -- 75
2019-06-25 01:00:00 21.9 9 Nordeste 17 Nordeste 0 -- -- 75
2019-06-25 00:00:00 22.1 9 Nordeste 17 Nordeste 0 -- -- 73
2019-06-24 23:00:00 22.1 12 Norte 21 Norte 0 -- -- 75
2019-06-24 22:00:00 21.6 9 Nordeste 24 Este 0 -- -- 89
2019-06-24 21:00:00 22 12 Este 29 Este 0 -- -- 87
2019-06-24 20:00:00 23 14 Nordeste 32 Este 0 -- -- 82
2019-06-24 19:00:00 23.7 17 Este 31 Este 0 -- -- 75
2019-06-24 18:00:00 24.9 15 Este 27 Este 0 -- -- 67
2019-06-24 17:00:00 24.5 17 Este 33 Este 0 -- -- 69
2019-06-24 16:00:00 25.9 11 Este 32 Este 0 -- -- 61
2019-06-24 15:00:00 24.6 17 Este 26 Este 0 -- -- 66
2019-06-24 14:00:00 25.9 12 Este 23 Este 0 -- -- 59
2019-06-24 13:00:00 26.6 9 Este 20 Este 0 -- -- 58
2019-06-24 12:00:00 25.6 10 Este 22 Este 0 -- -- 63
2019-06-24 11:00:00 23.2 17 Este 24 Este 0 -- -- 81
2019-06-24 10:00:00 22.6 12 Este 27 Este 0 -- -- 86
2019-06-24 09:00:00 22.5 8 Este 15 Este 0 -- -- 80
2019-06-24 08:00:00 21.1 2 Este 8 Este 0 -- -- 80
2019-06-24 07:00:00 20 4 Nordeste 7 Norte 0 -- -- 79
2019-06-24 06:00:00 19.9 5 Norte 10 Norte 0 -- -- 69
2019-06-24 05:00:00 20.4 4 Nordeste 13 Noroeste 0 -- -- 68
2019-06-24 04:00:00 20.5 9 Noroeste 13 Noroeste 0 -- -- 73
2019-06-24 03:00:00 19.2 0 Calma -- -- 0 -- -- 93
2019-06-24 02:00:00 19.8 0 Calma -- -- 0 -- -- 96
2019-06-24 01:00:00 20.1 2 Norte 4 Este 0 -- -- 96
2019-06-24 00:00:00 20.3 2 Nordeste 6 Este 0 -- -- 95
2019-06-23 23:00:00 20.4 3 Este 6 Este 0 -- -- 94
2019-06-23 22:00:00 20.9 0 Calma 9 Sudoeste 0 -- -- 92
2019-06-23 21:00:00 21.8 2 Sur 8 Sur 0 -- -- 88
2019-06-23 20:00:00 23 4 Sur 18 Sur 0 -- -- 85
2019-06-23 19:00:00 23.7 9 Sur 29 Sur 0 -- -- 80
2019-06-23 18:00:00 24.4 18 Sur 42 Sudoeste 0 -- -- 77
2019-06-23 17:00:00 24.3 31 Sur 48 Sudoeste 0 -- -- 77
2019-06-23 16:00:00 24.8 19 Sur 36 Sur 0 -- -- 78
2019-06-23 15:00:00 25.3 20 Sur 41 Sudoeste 0 -- -- 76
2019-06-23 14:00:00 25.1 26 Sur 44 Sur 0 -- -- 76
2019-06-23 13:00:00 24.3 27 Sur 45 Sudoeste 0 -- -- 78
2019-06-23 12:00:00 24.3 23 Sur 41 Sudoeste 0 -- -- 78
2019-06-23 11:00:00 23.7 10 Sudoeste 36 Oeste 0 -- -- 80
2019-06-23 10:00:00 22.3 5 Este 31 Sudoeste 0 -- -- 86
2019-06-23 09:00:00 21.2 17 Sur 32 Sur 0 -- -- 89
2019-06-23 08:00:00 20.1 9 Sur 24 Oeste 0 -- -- 94
2019-06-23 07:00:00 19 6 Sudoeste 19 Sudoeste 0 -- -- 96
2019-06-23 06:00:00 18.4 3 Sudoeste 14 Oeste 0 -- -- 94
2019-06-23 05:00:00 18.8 7 Oeste 15 Oeste 0 -- -- 95
2019-06-23 04:00:00 19 8 Oeste 15 Oeste 0 -- -- 95
2019-06-23 03:00:00 19.4 3 Oeste 23 Sudoeste 0 -- -- 96
2019-06-23 02:00:00 19.6 9 Sudoeste 17 Oeste 0 -- -- 96
2019-06-23 01:00:00 19.7 8 Sudoeste 15 Sudoeste 0 -- -- 95
2019-06-23 00:00:00 19.9 6 Sudoeste 15 Oeste 0 -- -- 94
2019-06-22 23:00:00 20.2 9 Sudoeste 19 Sudoeste 0 -- -- 93
2019-06-22 22:00:00 20.5 9 Sur 19 Sur 0 -- -- 91
2019-06-22 21:00:00 21.4 10 Sur 18 Sudoeste 0 -- -- 85
2019-06-22 20:00:00 23.5 9 Sur 14 Sur 0 -- -- 74
2019-06-22 19:00:00 24.9 5 Sur 12 Sur 0 -- -- 69
2019-06-22 18:00:00 25.6 8 Sur 19 Sudeste 0 -- -- 67
2019-06-22 17:00:00 26.3 12 Sudeste 20 Sudeste 0 -- -- 66
2019-06-22 16:00:00 24.3 10 Sudeste 16 Este 0 -- -- 72
2019-06-22 15:00:00 24.6 3 Oeste 18 Sudeste 0 -- -- 74
2019-06-22 14:00:00 26.7 6 Sudeste 18 Sur 0 -- -- 66
2019-06-22 13:00:00 26.3 8 Sur 16 Sudeste 0 -- -- 65
2019-06-22 12:00:00 25.4 6 Sudeste 14 Sudeste 0 -- -- 70
2019-06-22 11:00:00 24.3 5 Sudeste 12 Sur 0 -- -- 71
2019-06-22 10:00:00 23.6 6 Sur 12 Sur 0 -- -- 73
2019-06-22 09:00:00 22.2 4 Sur 6 Sur 0 -- -- 75
2019-06-22 08:00:00 20.6 2 Sudeste 9 Norte 0 -- -- 81
2019-06-22 07:00:00 18.9 0 Calma 4 Nordeste 0 -- -- 87
2019-06-22 06:00:00 18.9 3 Sur 14 Oeste 0 -- -- 84
2019-06-22 05:00:00 18.6 5 Noroeste 13 Noroeste 0 -- -- 78
2019-06-22 04:00:00 19.4 5 Norte 9 Norte 0 -- -- 75
2019-06-22 03:00:00 20.2 3 Norte 20 Noroeste 0 -- -- 79
2019-06-22 02:00:00 20.7 10 Noroeste 19 Noroeste 0 -- -- 76
2019-06-22 01:00:00 20.7 11 Norte 15 Noroeste 0 -- -- 78
2019-06-22 00:00:00 20.5 8 Noroeste 13 Noroeste 0 -- -- 81
2019-06-21 23:00:00 20.3 3 Noroeste 9 Sudoeste 0 -- -- 84
2019-06-21 22:00:00 20.7 4 Sudoeste 12 Sudoeste 0 -- -- 83
2019-06-21 21:00:00 21.8 4 Sudoeste 11 Sudeste 0 -- -- 79
2019-06-21 20:00:00 22.6 3 Sudeste 10 Sur 0 -- -- 76
2019-06-21 19:00:00 23.9 4 Sudeste 12 Sur 0 -- -- 69
2019-06-21 18:00:00 25.1 7 Sur 14 Sur 0 -- -- 65
2019-06-21 17:00:00 26.4 10 Sur 16 Sur 0 -- -- 62
2019-06-21 16:00:00 25.5 7 Sur 26 Este 0 -- -- 67
2019-06-21 15:00:00 25.1 9 Este 19 Este 0 -- -- 66
2019-06-21 14:00:00 25.2 6 Este 14 Sudeste 0 -- -- 65
2019-06-21 13:00:00 24.6 8 Sudeste 13 Sudeste 0 -- -- 69
2019-06-21 12:00:00 25.3 7 Sudeste 12 Sudeste 0 -- -- 65
2019-06-21 11:00:00 25.2 5 Sudeste 21 Nordeste 0 -- -- 64
2019-06-21 10:00:00 24.3 12 Norte 29 Norte 0 -- -- 64
2019-06-21 09:00:00 21 18 Norte 29 Norte 0 -- -- 78
2019-06-21 08:00:00 19.4 15 Norte 27 Noroeste 0 -- -- 86
2019-06-21 07:00:00 18.8 12 Norte 23 Noroeste 0 -- -- 92
2019-06-21 06:00:00 18.6 5 Noroeste 8 Noroeste 0 -- -- 94
2019-06-21 05:00:00 19.1 2 Sudoeste 9 Sudoeste 0 -- -- 93
2019-06-21 04:00:00 19.2 4 Sudoeste 9 Sur 0 -- -- 94
2019-06-21 03:00:00 19 3 Sur 8 Sudeste 0 -- -- 93
2019-06-21 02:00:00 18.9 3 Este 7 Este 0 -- -- 91
2019-06-21 01:00:00 19.1 5 Nordeste 12 Nordeste 0 -- -- 89
2019-06-21 00:00:00 19.8 2 Sur 13 Norte 0 -- -- 86
2019-06-20 23:00:00 19.7 8 Norte 12 Norte 0 -- -- 88
2019-06-20 22:00:00 19.5 5 Nordeste 9 Este 0 -- -- 90
2019-06-20 21:00:00 20 4 Nordeste 9 Este 0 -- -- 88
2019-06-20 20:00:00 20.6 7 Este 11 Este 0 -- -- 86
2019-06-20 19:00:00 21.9 4 Este 15 Este 0 -- -- 82
2019-06-20 18:00:00 22.6 10 Este 16 Este 0 -- -- 78
2019-06-20 17:00:00 22.8 9 Este 29 Sudeste 0 -- -- 76
2019-06-20 16:00:00 23.4 10 Este 30 Este 0 -- -- 73
2019-06-20 15:00:00 23.3 15 Este 31 Este 0 -- -- 74
2019-06-20 14:00:00 23.7 8 Este 36 Este 0 -- -- 72
2019-06-20 13:00:00 23 14 Nordeste 29 Este 0 -- -- 75
2019-06-20 12:00:00 22.7 15 Nordeste 23 Nordeste 0 -- -- 77
2019-06-20 11:00:00 21.5 8 Nordeste 23 Este 0 -- -- 83
2019-06-20 10:00:00 19.7 10 Este 26 Este 0 -- -- 93
2019-06-20 09:00:00 19.5 12 Este 22 Este 0 -- -- 90
2019-06-20 08:00:00 20.7 4 Este 19 Norte 0 -- -- 84
2019-06-20 07:00:00 19.4 17 Norte 20 Norte 0 -- -- 90
2019-06-20 06:00:00 18.5 4 Norte 9 Norte 0 -- -- 94
2019-06-20 05:00:00 18.6 0 Calma 5 Oeste 0 -- -- 96
2019-06-20 04:00:00 18.7 4 Norte 6 Norte 0 -- -- 96
2019-06-20 03:00:00 18.8 3 Norte 4 Norte 0 -- -- 95
2019-06-20 02:00:00 18.9 0 Calma -- -- 0 -- -- 95
2019-06-20 01:00:00 19 0 Calma -- -- 0 -- -- 94
2019-06-20 00:00:00 19.3 0 Calma 0 Calma 0 -- -- 94
2019-06-19 23:00:00 19.5 0 Calma 5 Sur 0 -- -- 93
2019-06-19 22:00:00 19.9 3 Sur 11 Sudoeste 0 -- -- 91
2019-06-19 21:00:00 20.9 5 Sur 11 Sur 0 -- -- 87
2019-06-19 20:00:00 22.1 5 Sur 14 Sur 0 -- -- 85
2019-06-19 19:00:00 23.4 9 Sur 19 Sur 0 -- -- 79
2019-06-19 18:00:00 24.1 10 Sur 18 Sudoeste 0 -- -- 77
2019-06-19 17:00:00 24 8 Sur 17 Sudeste 0 -- -- 78
2019-06-19 16:00:00 24.6 9 Sur 17 Sur 0 -- -- 75
2019-06-19 15:00:00 25 10 Sur -- -- -- -- -- 72
2019-06-19 14:00:00 24.9 8 Sur 13 Sur 0 -- -- 73
2019-06-19 13:00:00 24.2 8 Sur 24 Sur 0 -- -- 75
2019-06-19 12:00:00 -- -- -- -- -- -- -- -- --
2019-06-19 11:00:00 23 14 Sur 28 Sur 0 -- -- 77
2019-06-19 10:00:00 21.7 17 Sur 27 Sudoeste 0 -- -- 79
2019-06-19 09:00:00 19.6 7 Sudoeste 36 Sudoeste 0 -- -- 79
2019-06-19 08:00:00 18.7 16 Oeste 34 Sudoeste 0 -- -- 82
2019-06-19 07:00:00 18.7 18 Sudoeste 37 Oeste 0 -- -- 81
2019-06-19 06:00:00 18.3 15 Sudoeste 30 Sudoeste 0 -- -- 93
2019-06-19 05:00:00 18.4 13 Sudoeste 23 Sudoeste 0 -- -- 93
2019-06-19 04:00:00 18.3 10 Oeste 29 Oeste 0 -- -- 90
2019-06-19 03:00:00 18.5 12 Sudoeste 29 Sudoeste 0 -- -- 91
2019-06-19 02:00:00 18.7 12 Sudoeste 29 Sudoeste 0 -- -- 93
2019-06-19 01:00:00 19 13 Sudoeste 24 Sudoeste 0 -- -- 92
2019-06-19 00:00:00 19.1 9 Sudoeste 26 Sudoeste 0 -- -- 89
2019-06-18 23:00:00 19.2 12 Sudoeste 33 Sur 0 -- -- 90
2019-06-18 22:00:00 19.3 16 Sur 38 Sudoeste 0 -- -- 93
2019-06-18 21:00:00 19.8 22 Sur 39 Sudoeste 0 -- -- 92
2019-06-18 20:00:00 20.5 13 Sudoeste 37 Sudoeste 0 -- -- 88
2019-06-18 19:00:00 21.9 17 Sur 43 Sur 0 -- -- 82
2019-06-18 18:00:00 22.6 20 Sur 49 Sur 0 -- -- 78
2019-06-18 17:00:00 23.2 30 Sur 47 Sudoeste 0 -- -- 71
2019-06-18 16:00:00 23.4 29 Sur 49 Sudoeste 0 -- -- 69
2019-06-18 15:00:00 23.4 27 Sur 50 Sur 0 -- -- 69
2019-06-18 14:00:00 23.7 21 Sur 45 Sur 0 -- -- 68
2019-06-18 13:00:00 24.3 18 Sur 36 Sur 0 -- -- 63
2019-06-18 12:00:00 24.4 12 Sudoeste 29 Sudoeste 0 -- -- 62
2019-06-18 11:00:00 23.8 15 Sur 28 Sur 0 -- -- 70
2019-06-18 10:00:00 23 9 Sudoeste 24 Sudoeste 0 -- -- 62
2019-06-18 09:00:00 21.5 3 Sudeste 13 Sudoeste 0 -- -- 60
2019-06-18 08:00:00 19.5 6 Sudoeste 13 Oeste 0 -- -- 57
2019-06-18 07:00:00 18.9 6 Sudoeste 19 Oeste 0 -- -- 58
2019-06-18 06:00:00 18.7 5 Sudoeste 17 Noroeste 0 -- -- 59
2019-06-18 05:00:00 18.1 9 Oeste 20 Oeste 0 -- -- 68
2019-06-18 04:00:00 17.6 7 Oeste 17 Sudoeste 0 -- -- 81
2019-06-18 03:00:00 17.9 8 Oeste 20 Oeste 0 -- -- 91
2019-06-18 02:00:00 17.8 4 Oeste 15 Sudoeste 0 -- -- 91
2019-06-18 01:00:00 18.2 3 Sudoeste 7 Sudoeste 0 -- -- 93
2019-06-18 00:00:00 18.7 2 Sur 17 Sudoeste 0 -- -- 92
2019-06-17 23:00:00 19.2 9 Sur 25 Sudoeste 0 -- -- 92
2019-06-17 22:00:00 19.4 9 Sur 22 Sudoeste 0 -- -- 92
2019-06-17 21:00:00 20.1 9 Sur 15 Sur 0 -- -- 89
2019-06-17 20:00:00 21.9 6 Sur 16 Sur 0 -- -- 81
2019-06-17 19:00:00 23 9 Sur 15 Sur 0 -- -- 75
2019-06-17 18:00:00 23.7 9 Sur 15 Sur 0 -- -- 75
2019-06-17 17:00:00 24.4 8 Sur 15 Sur 0 -- -- 72
2019-06-17 16:00:00 25.3 9 Sur 14 Sur 0 -- -- 69
2019-06-17 15:00:00 22.9 7 Sudeste 11 Sudeste 0 -- -- 69
2019-06-17 14:00:00 24.8 8 Sur 12 Sur 0 -- -- 63
2019-06-17 13:00:00 24.7 6 Este 12 Este 0 -- -- 56
2019-06-17 12:00:00 24.2 5 Sudeste 8 Sudeste 0 -- -- 61
2019-06-17 11:00:00 25.1 5 Nordeste 9 Nordeste 0 -- -- 51
2019-06-17 10:00:00 24.2 3 Nordeste 6 Nordeste 0 -- -- 55
2019-06-17 09:00:00 22.5 3 Sudeste 10 Sudoeste 0 -- -- 61
2019-06-17 08:00:00 20 2 Este 8 Sudeste 0 -- -- 69
2019-06-17 07:00:00 18.5 3 Nordeste 15 Norte 0 -- -- 74
2019-06-17 06:00:00 17.3 4 Nordeste 14 Noroeste 0 -- -- 74
2019-06-17 05:00:00 17.9 7 Norte 15 Noroeste 0 -- -- 70
2019-06-17 04:00:00 18.9 5 Noroeste 19 Noroeste 0 -- -- 66
2019-06-17 03:00:00 19.7 11 Noroeste 19 Noroeste 0 -- -- 63
2019-06-17 02:00:00 19.2 6 Oeste 18 Noroeste 0 -- -- 69
2019-06-17 01:00:00 18.4 4 Sur 11 Noroeste 0 -- -- 79
2019-06-17 00:00:00 18.8 6 Oeste 14 Oeste 0 -- -- 79
2019-06-16 23:00:00 19.2 5 Oeste 18 Sudoeste 0 -- -- 77
2019-06-16 22:00:00 19.5 10 Oeste 28 Oeste 0 -- -- 73
2019-06-16 21:00:00 19.6 12 Sudoeste 25 Sudoeste 0 -- -- 82
2019-06-16 20:00:00 20.6 14 Sur 22 Sur 0 -- -- 81
2019-06-16 19:00:00 22.1 11 Sur 28 Sur 0 -- -- 78
2019-06-16 18:00:00 23.2 11 Sur 23 Sudoeste 0 -- -- 71
2019-06-16 17:00:00 24.6 8 Sur 16 Sudoeste 0 -- -- 63
2019-06-16 16:00:00 24.8 11 Sur 24 Sudoeste 0 -- -- 62
2019-06-16 15:00:00 24.7 13 Sur 26 Sudoeste 0 -- -- 60
2019-06-16 14:00:00 24.6 12 Sur 29 Sudoeste 0 -- -- 60
2019-06-16 13:00:00 24.8 15 Sudoeste 23 Sudoeste 0 -- -- 60
2019-06-16 12:00:00 24.3 11 Sudoeste 22 Sudoeste 0 -- -- 57
2019-06-16 11:00:00 23.3 10 Sudoeste 17 Sudoeste 0 -- -- 56
2019-06-16 10:00:00 22.4 5 Sur 8 Sur 0 -- -- 58
2019-06-16 09:00:00 21.1 3 Sudeste 10 Norte 0 -- -- 60
2019-06-16 08:00:00 19.2 5 Norte 12 Noroeste 0 -- -- 64
2019-06-16 07:00:00 17.5 9 Noroeste 16 Noroeste 0 -- -- 69
2019-06-16 06:00:00 16.6 7 Norte 11 Norte 0 -- -- 75
2019-06-16 05:00:00 17.1 9 Norte 14 Norte 0 -- -- 71
2019-06-16 04:00:00 17.2 2 Norte 22 Noroeste 0 -- -- 76
2019-06-16 03:00:00 17.7 12 Norte 20 Noroeste 0 -- -- 74
2019-06-16 02:00:00 17.2 4 Noroeste 14 Norte 0 -- -- 70
2019-06-16 01:00:00 17.6 8 Norte 15 Norte 0 -- -- 70
2019-06-16 00:00:00 17.7 11 Norte 15 Norte 0 -- -- 72
2019-06-15 23:00:00 18.3 5 Norte 12 Norte 0 -- -- 76
2019-06-15 22:00:00 18.7 4 Oeste 12 Sudoeste 0 -- -- 80
2019-06-15 21:00:00 19.9 5 Sudoeste 10 Sudoeste 0 -- -- 77
2019-06-15 20:00:00 21.5 5 Sur 13 Sur 0 -- -- 73
2019-06-15 19:00:00 22.3 6 Sur 12 Sudeste 0 -- -- 70
2019-06-15 18:00:00 23.5 5 Sur 12 Sudeste 0 -- -- 65
2019-06-15 17:00:00 23.6 5 Sudeste 14 Sudeste 0 -- -- 67
2019-06-15 16:00:00 23.7 5 Sudeste 14 Sudeste 0 -- -- 67
2019-06-15 15:00:00 22 8 Este 23 Este 0 -- -- 75
2019-06-15 14:00:00 20.1 18 Este 37 Este 0 -- -- 80
2019-06-15 13:00:00 19.8 26 Este 42 Este 0 -- -- 81
2019-06-15 12:00:00 19.9 24 Este 36 Este 0 -- -- 84
2019-06-15 11:00:00 20.3 20 Este 29 Este 0 -- -- 82
2019-06-15 10:00:00 21.2 5 Nordeste 18 Este 0 -- -- 76
2019-06-15 09:00:00 20.6 5 Sudeste 17 Norte 0 -- -- 79
2019-06-15 08:00:00 19.1 13 Norte 18 Norte 0 -- -- 76
2019-06-15 07:00:00 17.4 10 Norte 15 Norte 0 -- -- 82
2019-06-15 06:00:00 17.3 9 Norte 13 Norte 0 -- -- 89
2019-06-15 05:00:00 17.7 5 Norte 22 Norte 0 -- -- 86
2019-06-15 04:00:00 18.9 5 Nordeste 22 Norte 0 -- -- 74
2019-06-15 03:00:00 19.3 12 Noroeste 20 Norte 0 -- -- 72
2019-06-15 02:00:00 17.7 4 Norte 5 Norte 0 -- -- 88
2019-06-15 01:00:00 18.3 3 Noroeste 14 Oeste 0 -- -- 85
2019-06-15 00:00:00 18.6 5 Oeste 15 Sudoeste 0 -- -- 86
2019-06-14 23:00:00 19.1 4 Oeste 24 Sudoeste 0 -- -- 84
2019-06-14 22:00:00 19.6 12 Sudoeste 42 Sudoeste 0 -- -- 81
2019-06-14 21:00:00 20 20 Sudoeste 48 Sudoeste 0 -- -- 77
2019-06-14 20:00:00 20.8 21 Sudoeste 55 Sur 0 -- -- 74
2019-06-14 19:00:00 21.2 21 Sudoeste 51 Sudoeste 0 -- -- 73
2019-06-14 18:00:00 21.7 21 Sudoeste 46 Sur 0 -- -- 74
2019-06-14 17:00:00 22.4 18 Sudoeste 50 Sudoeste 0 -- -- 72
2019-06-14 16:00:00 23.7 17 Sudoeste 49 Oeste 0 -- -- 58
2019-06-14 15:00:00 26.3 8 Sudoeste 42 Nordeste 0 -- -- 45
2019-06-14 14:00:00 24.3 12 Nordeste 26 Este 0 -- -- 50
2019-06-14 13:00:00 24.7 10 Nordeste 30 Nordeste 0 -- -- 49
2019-06-14 12:00:00 22.7 11 Nordeste 53 Nordeste 0 -- -- 54
2019-06-14 11:00:00 22.5 14 Norte 41 Norte 0 -- -- 55
2019-06-14 10:00:00 20.8 12 Nordeste 41 Norte 0 -- -- 59
2019-06-14 09:00:00 19.1 17 Norte 35 Norte 0 -- -- 61
2019-06-14 08:00:00 18.7 11 Norte 37 Norte 0 -- -- 58
2019-06-14 07:00:00 18.7 18 Norte 40 Nordeste 0 -- -- 47
2019-06-14 06:00:00 18.2 22 Norte 44 Noroeste 0 -- -- 47
2019-06-14 05:00:00 18.1 19 Norte 42 Norte 0 -- -- 44
2019-06-14 04:00:00 18.2 27 Norte 42 Norte 0 -- -- 47
2019-06-14 03:00:00 18.1 25 Norte 40 Norte 0 -- -- 41
2019-06-14 02:00:00 18.2 20 Norte 31 Norte 0 -- -- 40
2019-06-14 01:00:00 18.7 18 Norte 27 Norte 0 -- -- 33
2019-06-14 00:00:00 18.7 15 Norte 20 Norte 0 -- -- 37
2019-06-13 23:00:00 18.3 16 Norte 21 Norte 0 -- -- 39
2019-06-13 22:00:00 18.4 11 Norte 15 Norte 0 -- -- 37
2019-06-13 21:00:00 18.8 6 Nordeste 22 Este 0 -- -- 43
2019-06-13 20:00:00 18.6 18 Este 28 Este 0 -- -- 53
2019-06-13 19:00:00 18.8 13 Nordeste 24 Este 0 -- -- 70
2019-06-13 18:00:00 19 14 Este 23 Este 0 -- -- 70
2019-06-13 17:00:00 19.7 13 Este 21 Este 0 -- -- 67
2019-06-13 16:00:00 20.8 7 Este 19 Este 0 -- -- 65
2019-06-13 15:00:00 21.3 12 Este 18 Este 0 -- -- 64
2019-06-13 14:00:00 22 7 Sudeste 15 Este 0 -- -- 67
2019-06-13 13:00:00 22.2 8 Sudeste 18 Sudeste 0 -- -- 66
2019-06-13 12:00:00 22.3 9 Sur 14 Sur 0 -- -- 65
2019-06-13 11:00:00 20.7 6 Sur 9 Sudeste 0 -- -- 69
2019-06-13 10:00:00 20.1 4 Sur 8 Sur 0 -- -- 66
2019-06-13 09:00:00 18.3 4 Sudeste 13 Norte 0 -- -- 70
2019-06-13 08:00:00 15.7 8 Noroeste 19 Noroeste 0 -- -- 73
2019-06-13 07:00:00 14.8 12 Noroeste 15 Noroeste 0 -- -- 83
2019-06-13 06:00:00 14.6 5 Noroeste 13 Oeste 0 -- -- 86
2019-06-13 05:00:00 14 12 Noroeste 20 Noroeste 0 -- -- 82
2019-06-13 04:00:00 14.3 12 Noroeste 17 Oeste 0 -- -- 84
2019-06-13 03:00:00 14.8 10 Noroeste 13 Noroeste 0 -- -- 83
2019-06-13 02:00:00 15.4 8 Noroeste 11 Noroeste 0 -- -- 83
2019-06-13 01:00:00 15.9 5 Noroeste 11 Noroeste 0 -- -- 84
2019-06-13 00:00:00 16.4 5 Oeste 21 Sudoeste 0 -- -- 83
2019-06-12 23:00:00 16.6 9 Sur 19 Sur 0 -- -- 85
2019-06-12 22:00:00 16.5 10 Sur 21 Sudoeste 0 -- -- 84
2019-06-12 21:00:00 17.2 13 Sur 36 Sur 0 -- -- 80
2019-06-12 20:00:00 18.3 22 Sudoeste 38 Sudoeste 0 -- -- 73
2019-06-12 19:00:00 18.9 24 Sur 40 Sudoeste 0 -- -- 69
2019-06-12 18:00:00 19.5 27 Sur 42 Sur 0 -- -- 66
2019-06-12 17:00:00 20.1 29 Sur 43 Sur 0 -- -- 65
2019-06-12 16:00:00 20.9 22 Sur 41 Sudoeste 0 -- -- 64
2019-06-12 15:00:00 20.6 26 Sur 41 Sudoeste 0 -- -- 61
2019-06-12 14:00:00 20.7 22 Sur 40 Sudoeste 0 -- -- 62
2019-06-12 13:00:00 19.9 23 Sur 41 Sur 0 -- -- 64
2019-06-12 12:00:00 19.8 18 Sur 37 Sudoeste 0 -- -- 67
2019-06-12 11:00:00 19 9 Sur 13 Sur 0 -- -- 68
2019-06-12 10:00:00 16.7 6 Noroeste 14 Norte 0 -- -- 63
2019-06-12 09:00:00 15.1 9 Noroeste 17 Noroeste 0 -- -- 74
2019-06-12 08:00:00 13 8 Norte 23 Noroeste 0 -- -- 86
2019-06-12 07:00:00 11.4 12 Noroeste 20 Noroeste 0 -- -- 91
2019-06-12 06:00:00 11.5 8 Noroeste 13 Noroeste 0 -- -- 91
2019-06-12 05:00:00 11.5 10 Noroeste 13 Noroeste 0 -- -- 91
2019-06-12 04:00:00 11.5 6 Noroeste 13 Noroeste 0 -- -- 89
2019-06-12 03:00:00 11.8 5 Oeste 18 Oeste 0 -- -- 88
2019-06-12 02:00:00 11.9 10 Oeste 19 Oeste 0 -- -- 94
2019-06-12 01:00:00 11.5 8 Oeste 15 Oeste 0 -- -- 98
2019-06-12 00:00:00 11.8 8 Noroeste 15 Noroeste 0 -- -- 97
2019-06-11 23:00:00 11.9 10 Norte 14 Norte 0 -- -- 97
2019-06-11 22:00:00 12.1 6 Noroeste 13 Noroeste 0.6 -- -- 97
2019-06-11 21:00:00 12.2 3 Nordeste 12 Oeste 1.2 -- -- 96
2019-06-11 20:00:00 12.3 8 Noroeste 14 Noroeste 0.4 -- -- 95
2019-06-11 19:00:00 12.2 6 Noroeste 21 Norte 0.6 -- -- 95
2019-06-11 18:00:00 12.2 6 Noroeste 21 Noroeste 0.2 -- -- 94
2019-06-11 17:00:00 12.4 6 Norte 23 Nordeste 1.2 -- -- 95
2019-06-11 16:00:00 12.8 6 Nordeste 21 Norte 2 -- -- 96
2019-06-11 15:00:00 13.1 12 Norte 23 Norte 4 -- -- 95
2019-06-11 14:00:00 14.7 7 Noroeste 17 Norte 1.6 -- -- 95
2019-06-11 13:00:00 14.5 6 Este 17 Norte 0.8 -- -- 95
2019-06-11 12:00:00 15.1 9 Norte 14 Oeste 3.2 -- -- 95
2019-06-11 11:00:00 15.2 4 Noroeste 8 Oeste 0.8 -- -- 95
2019-06-11 10:00:00 15.1 6 Oeste 15 Noroeste 1.4 -- -- 94
2019-06-11 09:00:00 15.2 10 Noroeste 16 Noroeste 0.6 -- -- 93
2019-06-11 08:00:00 14.7 14 Noroeste 20 Noroeste 0.4 -- -- 92
2019-06-11 07:00:00 15.1 4 Noroeste 14 Noroeste 0 -- -- 92
2019-06-11 06:00:00 15.2 6 Noroeste 24 Noroeste 0.2 -- -- 90
2019-06-11 05:00:00 16 8 Noroeste 22 Noroeste 0 -- -- 77
2019-06-11 04:00:00 15.3 12 Noroeste 28 Noroeste 0.2 -- -- 81
2019-06-11 03:00:00 17.4 5 Norte 17 Norte 0 -- -- 59
2019-06-11 02:00:00 17.1 6 Oeste 16 Noroeste 0 -- -- 60
2019-06-11 01:00:00 17.4 2 Sudoeste 10 Norte 0 -- -- 63
2019-06-11 00:00:00 18.1 7 Norte 19 Noroeste 0 -- -- 60
2019-06-10 23:00:00 18.5 14 Noroeste 21 Noroeste 0 -- -- 73
2019-06-10 22:00:00 18.5 12 Noroeste 17 Noroeste 0 -- -- 75
2019-06-10 21:00:00 19.1 3 Nordeste 10 Este 0 -- -- 75
2019-06-10 20:00:00 20.3 3 Este 18 Este 0 -- -- 70
2019-06-10 19:00:00 22.4 5 Sudeste 17 Sudeste 0 -- -- 63
2019-06-10 18:00:00 23.5 7 Sudeste 13 Sudeste 0 -- -- 64
2019-06-10 17:00:00 24 8 Sudeste 18 Sur 0 -- -- 62
2019-06-10 16:00:00 23.7 7 Sudeste 18 Sur 0 -- -- 68
2019-06-10 15:00:00 25.2 10 Sur 19 Sur 0 -- -- 64
2019-06-10 14:00:00 25.3 8 Sur 15 Sur 0 -- -- 60
2019-06-10 13:00:00 25.4 9 Sur 17 Sur 0 -- -- 65
2019-06-10 12:00:00 25.5 8 Sur 14 Sur 0 -- -- 60
2019-06-10 11:00:00 25.2 6 Sur 13 Sur 0 -- -- 56
2019-06-10 10:00:00 23.4 4 Norte 16 Norte 0 -- -- 58
2019-06-10 09:00:00 20.3 6 Noroeste 17 Norte 0 -- -- 67
2019-06-10 08:00:00 19.7 15 Norte 21 Noroeste 0 -- -- 65
2019-06-10 07:00:00 19.1 6 Norte 13 Noroeste 0 -- -- 69
2019-06-10 06:00:00 19.5 5 Norte 12 Norte 0 -- -- 64
2019-06-10 05:00:00 18.8 5 Noroeste 12 Noroeste 0 -- -- 72
2019-06-10 04:00:00 19.3 3 Este 12 Oeste 0 -- -- 72
2019-06-10 03:00:00 20.2 4 Oeste 13 Noroeste 0 -- -- 63
2019-06-10 02:00:00 20.5 6 Norte 21 Norte 0 -- -- 61
2019-06-10 01:00:00 20.5 8 Noroeste 18 Noroeste 0 -- -- 61
2019-06-10 00:00:00 19.8 5 Norte 12 Norte 0 -- -- 65
2019-06-09 23:00:00 19.6 6 Norte 13 Sudoeste 0 -- -- 76
2019-06-09 22:00:00 19.7 5 Sudoeste 17 Sur 0 -- -- 79
2019-06-09 21:00:00 21 10 Noroeste 20 Noroeste 0 -- -- 62
2019-06-09 20:00:00 21.6 10 Nordeste 24 Noroeste 0 -- -- 63
2019-06-09 19:00:00 20.2 12 Norte 24 Este 0 -- -- 73
2019-06-09 18:00:00 20.2 10 Nordeste 26 Nordeste 0 -- -- 78
2019-06-09 17:00:00 20.7 14 Nordeste 30 Nordeste 0 -- -- 76
2019-06-09 16:00:00 21.2 17 Este 33 Este 0 -- -- 76
2019-06-09 15:00:00 21 18 Nordeste 34 Este 0 -- -- 75
2019-06-09 14:00:00 21.8 16 Este 33 Este 0 -- -- 68
2019-06-09 13:00:00 24.2 10 Nordeste 28 Este 0 -- -- 52
2019-06-09 12:00:00 25.5 9 Norte 27 Nordeste 0 -- -- 30
2019-06-09 11:00:00 24.2 11 Nordeste 31 Este 0 -- -- 27
2019-06-09 10:00:00 21.8 7 Norte 15 Este 0 -- -- 32
2019-06-09 09:00:00 21.1 9 Norte 17 Nordeste 0 -- -- 35
2019-06-09 08:00:00 20.3 7 Nordeste 30 Norte 0 -- -- 44
2019-06-09 07:00:00 20.6 23 Norte 35 Norte 0 -- -- 34
2019-06-09 06:00:00 19.9 23 Norte 34 Norte 0 -- -- 34
2019-06-09 05:00:00 19.7 18 Norte 27 Norte 0 -- -- 32
2019-06-09 04:00:00 19.5 21 Norte 29 Norte 0 -- -- 30
2019-06-09 03:00:00 20 14 Norte 18 Norte 0 -- -- 26
2019-06-09 02:00:00 19.8 6 Norte 15 Norte 0 -- -- 28
2019-06-09 01:00:00 20.5 8 Norte 19 Norte 0 -- -- 27
2019-06-09 00:00:00 20.7 13 Norte 17 Norte 0 -- -- 26
2019-06-08 23:00:00 20.6 6 Norte 13 Norte 0 -- -- 25
2019-06-08 22:00:00 21 5 Norte 9 Norte 0 -- -- 23
2019-06-08 21:00:00 20 4 Nordeste 24 Este 0 -- -- 37
2019-06-08 20:00:00 21 8 Nordeste 19 Nordeste 0 -- -- 41
2019-06-08 19:00:00 21.2 9 Nordeste 24 Este 0 -- -- 46
2019-06-08 18:00:00 20.3 16 Este 33 Este 0 -- -- 48
2019-06-08 17:00:00 20 22 Este 40 Este 0 -- -- 49
2019-06-08 16:00:00 19.8 28 Este 45 Este 0 -- -- 56
2019-06-08 15:00:00 20 31 Este 45 Este 0 -- -- 53
2019-06-08 14:00:00 19.9 31 Este 55 Este 0 -- -- 55
2019-06-08 13:00:00 19.8 27 Este 42 Este 0 -- -- 58
2019-06-08 12:00:00 19.6 29 Este 40 Este 0 -- -- 60
2019-06-08 11:00:00 22.4 7 Este 16 Este 0 -- -- 53
2019-06-08 10:00:00 21.8 10 Este 22 Este 0 -- -- 44
2019-06-08 09:00:00 19.5 7 Norte 30 Norte 0 -- -- 47
2019-06-08 08:00:00 17.5 21 Norte 31 Norte 0 -- -- 50
2019-06-08 07:00:00 16.6 9 Norte 34 Norte 0 -- -- 52
2019-06-08 06:00:00 16.5 5 Este 28 Nordeste 0 -- -- 52
2019-06-08 05:00:00 17 12 Norte 35 Nordeste 0 -- -- 51
2019-06-08 04:00:00 17.3 13 Norte 32 Norte 0 -- -- 51
2019-06-08 03:00:00 17.8 13 Nordeste 39 Nordeste 0 -- -- 51
2019-06-08 02:00:00 18.3 16 Norte 42 Norte 0 -- -- 51
2019-06-08 01:00:00 18.5 12 Norte 31 Norte 0 -- -- 51
2019-06-08 00:00:00 18.1 8 Este 20 Este 0 -- -- 55
2019-06-07 23:00:00 17.4 10 Nordeste 15 Nordeste 0 -- -- 64
2019-06-07 22:00:00 17.4 4 Nordeste 16 Nordeste 0 -- -- 82
2019-06-07 21:00:00 17.7 10 Nordeste 36 Este 0 -- -- 84
2019-06-07 20:00:00 18.9 24 Este 43 Este 0 -- -- 75
2019-06-07 19:00:00 22.2 6 Sur 28 Sur 0 -- -- 74
2019-06-07 18:00:00 22.6 12 Sur 34 Sur 0 -- -- 71
2019-06-07 17:00:00 22.7 21 Sur 39 Sudoeste 0 -- -- 72
2019-06-07 16:00:00 22.8 15 Sur 37 Sudoeste 0 -- -- 72
2019-06-07 15:00:00 23.2 22 Sur 44 Sur 0 -- -- 71
2019-06-07 14:00:00 24.4 12 Sur 33 Sur 0 -- -- 71
2019-06-07 13:00:00 24.9 12 Sur 21 Sur 0 -- -- 68
2019-06-07 12:00:00 24.1 10 Sur 19 Sudoeste 0 -- -- 72
2019-06-07 11:00:00 23.4 9 Sur 17 Sur 0 -- -- 76
2019-06-07 10:00:00 19.9 7 Sudoeste 15 Sudoeste 0 -- -- 87
2019-06-07 09:00:00 19.6 5 Sur 8 Sur 0 -- -- 88
2019-06-07 08:00:00 18.9 3 Sudeste 7 Nordeste 0 -- -- 90
2019-06-07 07:00:00 17.1 0 Calma 6 Este 0 -- -- 94
2019-06-07 06:00:00 17 4 Nordeste 8 Nordeste 0 -- -- 93
2019-06-07 05:00:00 16.7 3 Nordeste 5 Nordeste 0 -- -- 93
2019-06-07 04:00:00 16.5 2 Norte 8 Noroeste 0 -- -- 91
2019-06-07 03:00:00 16.7 6 Noroeste 10 Noroeste 0 -- -- 89
2019-06-07 02:00:00 16.8 4 Noroeste 8 Noroeste 0 -- -- 89
2019-06-07 01:00:00 17.1 0 Calma 5 Nordeste 0 -- -- 87
2019-06-07 00:00:00 16.6 2 Este 4 Sur 0 -- -- 90
2019-06-06 23:00:00 16.5 3 Sudoeste 7 Sur 0 -- -- 89
2019-06-06 22:00:00 16.9 5 Sur 10 Sur 0 -- -- 88
2019-06-06 21:00:00 17.8 5 Sur 15 Sudoeste 0 -- -- 83
2019-06-06 20:00:00 19.5 7 Sur 17 Sur 0 -- -- 75
2019-06-06 19:00:00 20.7 10 Sur 19 Sur 0 -- -- 70
2019-06-06 18:00:00 21 9 Sur 20 Sur 0 -- -- 69
2019-06-06 17:00:00 21.9 12 Sur 21 Sur 0 -- -- 66
2019-06-06 16:00:00 22.3 12 Sur 21 Sur 0 -- -- 64
2019-06-06 15:00:00 23 11 Sur 22 Sudeste 0 -- -- 64
2019-06-06 14:00:00 22.6 13 Sur 27 Sur 0 -- -- 64
2019-06-06 13:00:00 22.5 13 Sur 24 Sur 0 -- -- 63
2019-06-06 12:00:00 23.1 10 Sur 24 Sudoeste 0 -- -- 63
2019-06-06 11:00:00 21.3 19 Sur 33 Sur 0 -- -- 68
2019-06-06 10:00:00 20.4 21 Sudoeste 31 Sudoeste 0 -- -- 69
2019-06-06 09:00:00 18.4 12 Sur 32 Sudoeste 0 -- -- 76
2019-06-06 08:00:00 17.5 9 Oeste 28 Oeste 0 -- -- 75
2019-06-06 07:00:00 16 9 Oeste 21 Oeste 0 -- -- 76
2019-06-06 06:00:00 15.6 10 Oeste 22 Oeste 0 -- -- 77
2019-06-06 05:00:00 15.7 6 Noroeste 23 Noroeste 0 -- -- 75
2019-06-06 04:00:00 15.7 8 Oeste 18 Oeste 0 -- -- 76
2019-06-06 03:00:00 15.3 8 Noroeste 15 Noroeste 0 -- -- 66
2019-06-06 02:00:00 15.4 9 Noroeste 16 Noroeste 0 -- -- 60
2019-06-06 01:00:00 15.8 10 Norte 20 Noroeste 0 -- -- 58
2019-06-06 00:00:00 16.1 7 Norte 28 Norte 0 -- -- 58
2019-06-05 23:00:00 16.5 21 Norte 36 Norte 0 -- -- 58
2019-06-05 22:00:00 17.4 18 Norte 23 Norte 0 -- -- 55
2019-06-05 21:00:00 18.7 6 Nordeste 26 Este 0 -- -- 61
2019-06-05 20:00:00 19.9 13 Este 25 Este 0 -- -- 62
2019-06-05 19:00:00 22.1 20 Nordeste 37 Este 0 -- -- 53
2019-06-05 18:00:00 23.6 5 Oeste 40 Sudoeste 0 -- -- 54
2019-06-05 17:00:00 22.7 22 Sur 43 Sudoeste 0 -- -- 72
2019-06-05 16:00:00 24.5 9 Sur 18 Sur 0 -- -- 73
2019-06-05 15:00:00 22.7 7 Sur 12 Sudeste 0 -- -- 79
2019-06-05 14:00:00 20.8 8 Sudeste 10 Sudeste 0 -- -- 87
2019-06-05 13:00:00 21.4 5 Sudeste 12 Este 0 -- -- 79
2019-06-05 12:00:00 21.8 9 Este 16 Este 0 -- -- 76
2019-06-05 11:00:00 20.1 7 Este 17 Nordeste 0 -- -- 82
2019-06-05 10:00:00 20.1 13 Este 20 Este 0 -- -- 81
2019-06-05 09:00:00 19.4 4 Nordeste 19 Norte 0 -- -- 83
2019-06-05 08:00:00 17.5 16 Norte 22 Norte 0 -- -- 88
2019-06-05 07:00:00 16.9 11 Norte 16 Norte 0 -- -- 88
2019-06-05 06:00:00 17 10 Norte 14 Norte 0 -- -- 87
2019-06-05 05:00:00 17 4 Nordeste 17 Nordeste 0 -- -- 90
2019-06-05 04:00:00 17.5 10 Nordeste 15 Este 0 -- -- 91
2019-06-05 03:00:00 17.2 5 Nordeste 8 Nordeste 0 -- -- 93
2019-06-05 02:00:00 17.6 3 Nordeste 5 Nordeste 0 -- -- 92
2019-06-05 01:00:00 17.9 0 Calma 5 Norte 0 -- -- 93
2019-06-05 00:00:00 18 2 Norte 5 Norte 0 -- -- 93
2019-06-04 23:00:00 18.1 0 Calma 5 Noroeste 0 -- -- 89
2019-06-04 22:00:00 18.7 3 Sudoeste 12 Oeste 0 -- -- 85
2019-06-04 21:00:00 19.4 6 Sudoeste 18 Sur 0 -- -- 81
2019-06-04 20:00:00 21.4 12 Sudoeste 24 Sudoeste 0 -- -- 75
2019-06-04 19:00:00 22.3 12 Sudoeste 26 Sudoeste 0 -- -- 67
2019-06-04 18:00:00 23.1 9 Sur 26 Sudoeste 0 -- -- 73
2019-06-04 17:00:00 23.7 14 Sur 25 Sudoeste 0 -- -- 70
2019-06-04 16:00:00 23.8 8 Sudoeste 27 Sur 0 -- -- 72
2019-06-04 15:00:00 23.5 18 Sur 30 Sur 0 -- -- 71
2019-06-04 14:00:00 23 15 Sur 37 Sudoeste 0 -- -- 74
2019-06-04 13:00:00 22.8 17 Sur 32 Sudoeste 0 -- -- 72
2019-06-04 12:00:00 22.5 17 Sur 34 Sudoeste 0 -- -- 76
2019-06-04 11:00:00 22.2 14 Sur 25 Sudoeste 0 -- -- 77
2019-06-04 10:00:00 21 13 Sur 29 Sur 0 -- -- 82
2019-06-04 09:00:00 19.8 12 Sur 26 Sudoeste 0 -- -- 83
2019-06-04 08:00:00 18.5 10 Sudoeste 30 Sur 0 -- -- 86
2019-06-04 07:00:00 17.4 11 Sur 28 Oeste 0 -- -- 89
2019-06-04 06:00:00 17.2 14 Sudoeste 29 Oeste 0 -- -- 82
2019-06-04 05:00:00 17.3 11 Sudoeste 23 Sudoeste 0 -- -- 76
2019-06-04 04:00:00 17.2 12 Sudoeste 23 Oeste 0 -- -- 75
2019-06-04 03:00:00 17.2 12 Sudoeste 22 Oeste 0 -- -- 79
2019-06-04 02:00:00 16.8 9 Sudoeste 23 Sudoeste 0 -- -- 92
2019-06-04 01:00:00 17.3 9 Sudoeste 34 Oeste 0 -- -- 94
2019-06-04 00:00:00 18.1 18 Sudoeste 39 Sudoeste 0 -- -- 93
2019-06-03 23:00:00 18.4 20 Sudoeste 37 Sudoeste 0 -- -- 92
2019-06-03 22:00:00 17.7 4 Sudeste 26 Sur 0 -- -- 93
2019-06-03 21:00:00 18.4 15 Sur 30 Sur 0 -- -- 87
2019-06-03 20:00:00 19.6 15 Sur 38 Sudoeste 0 -- -- 81
2019-06-03 19:00:00 20.7 21 Sur 39 Sur 0 -- -- 74
2019-06-03 18:00:00 21.2 11 Sur 36 Sudoeste 0 -- -- 76
2019-06-03 17:00:00 22.9 16 Sur 46 Sudoeste 0 -- -- 67
2019-06-03 16:00:00 23 24 Sur 45 Sur 0 -- -- 65
2019-06-03 15:00:00 23.8 12 Sur 31 Sur 0 -- -- 65
2019-06-03 14:00:00 23.7 14 Sur 35 Sudoeste 0 -- -- 63
2019-06-03 13:00:00 22.8 18 Sur 34 Sur 0 -- -- 68
2019-06-03 12:00:00 22 18 Sur 42 Sur 0 -- -- 69
2019-06-03 11:00:00 21.2 16 Sur 34 Sudoeste 0 -- -- 76
2019-06-03 10:00:00 20.5 11 Sudoeste 31 Sudoeste 0 -- -- 79
2019-06-03 09:00:00 20.5 9 Sudoeste 27 Oeste 0 -- -- 66
2019-06-03 08:00:00 18.3 10 Oeste 23 Sudoeste 0 -- -- 71
2019-06-03 07:00:00 17 10 Oeste 28 Oeste 0 -- -- 79
2019-06-03 06:00:00 16.9 15 Sudoeste 28 Oeste 0 -- -- 86
2019-06-03 05:00:00 16.9 10 Oeste 25 Oeste 0 -- -- 81
2019-06-03 04:00:00 17 15 Oeste 30 Sudoeste 0 -- -- 88
2019-06-03 03:00:00 17.1 13 Sudoeste 28 Sudoeste 0 -- -- 93
2019-06-03 02:00:00 17.1 12 Sudoeste 24 Sudoeste 0 -- -- 87
2019-06-03 01:00:00 17.3 13 Sudoeste 35 Oeste 0 -- -- 84
2019-06-03 00:00:00 17.6 12 Sudoeste 33 Oeste 0 -- -- 84
2019-06-02 23:00:00 18.3 14 Oeste 42 Sudoeste 0 -- -- 75
2019-06-02 22:00:00 18.8 14 Sudoeste 42 Sudoeste 0 -- -- 69
2019-06-02 21:00:00 18.9 18 Sur 44 Sur 0 -- -- 73
2019-06-02 20:00:00 19.4 15 Sur 38 Sur 0 -- -- 76
2019-06-02 19:00:00 21 17 Sudoeste 39 Sur 0 -- -- 69
2019-06-02 18:00:00 21.7 14 Sudoeste 42 Sur 0 -- -- 67
2019-06-02 17:00:00 22.1 15 Sudoeste 42 Sudoeste 0 -- -- 68
2019-06-02 16:00:00 22.2 17 Sudoeste 42 Sudoeste 0 -- -- 67
2019-06-02 15:00:00 22.3 22 Sur 44 Sur 0 -- -- 71
2019-06-02 14:00:00 21.9 19 Sur 40 Sudoeste 0 -- -- 77
2019-06-02 13:00:00 21.5 18 Sur 39 Sudoeste 0 -- -- 76
2019-06-02 12:00:00 21.3 21 Sur 41 Sudoeste 0 -- -- 78
2019-06-02 11:00:00 21.1 18 Sur 35 Sur 0 -- -- 78
2019-06-02 10:00:00 20.3 9 Sur 31 Sur 0 -- -- 79
2019-06-02 09:00:00 19.8 14 Sur 29 Sudoeste 0 -- -- 81
2019-06-02 08:00:00 18.6 8 Sur 22 Sudoeste 0 -- -- 75
2019-06-02 07:00:00 16.8 10 Sudoeste 17 Oeste 0 -- -- 79
2019-06-02 06:00:00 16.4 9 Sudoeste 18 Sudoeste 0 -- -- 81
2019-06-02 05:00:00 16.2 4 Sudoeste 16 Sudoeste 0 -- -- 65
2019-06-02 04:00:00 16.6 6 Oeste 22 Oeste 0 -- -- 82
2019-06-02 03:00:00 16.8 13 Oeste 27 Oeste 0 -- -- 94
2019-06-02 02:00:00 17 10 Sudoeste 30 Oeste 0 -- -- 91
2019-06-02 01:00:00 17.3 12 Sudoeste 28 Sudoeste 0 -- -- 90
2019-06-02 00:00:00 17.1 6 Sudoeste 18 Oeste 0 -- -- 89
2019-06-01 23:00:00 17.1 6 Sur 21 Sudoeste 0 -- -- 95
2019-06-01 22:00:00 17.5 13 Sur 22 Sudoeste 0 -- -- 95
2019-06-01 21:00:00 18 8 Sudoeste 21 Sur 0 -- -- 92
2019-06-01 20:00:00 19.4 13 Sur 30 Sur 0 -- -- 83
2019-06-01 19:00:00 20.1 20 Sur 36 Sur 0 -- -- 79
2019-06-01 18:00:00 21 21 Sur 39 Sudoeste 0 -- -- 77
2019-06-01 17:00:00 21.9 19 Sur 31 Sur 0 -- -- 74
2019-06-01 16:00:00 23.7 11 Sur 21 Oeste 0 -- -- 69
2019-06-01 15:00:00 23.3 11 Sur 24 Sudoeste 0 -- -- 71
2019-06-01 14:00:00 23.8 13 Sur 23 Sur 0 -- -- 68
2019-06-01 13:00:00 23.7 14 Sur 21 Sur 0 -- -- 69
2019-06-01 12:00:00 23.7 12 Sur 18 Sudoeste 0 -- -- 66
2019-06-01 11:00:00 22.3 7 Sur 13 Sur 0 -- -- 61
2019-06-01 10:00:00 21.3 4 Sudeste 7 Sudeste 0 -- -- 57
2019-06-01 09:00:00 20.6 2 Sudeste 7 Sur 0 -- -- 61
2019-06-01 08:00:00 19 2 Sur 6 Este 0 -- -- 66
2019-06-01 07:00:00 17.1 2 Sudoeste 14 Norte 0 -- -- 70
2019-06-01 06:00:00 17.6 12 Noroeste 22 Noroeste 0 -- -- 63
2019-06-01 05:00:00 17.4 10 Noroeste 18 Noroeste 0 -- -- 64
2019-06-01 04:00:00 16.5 3 Sudoeste 3 Sur 0 -- -- 70
2019-06-01 03:00:00 17.1 0 Calma 8 Noroeste 0 -- -- 67
2019-06-01 02:00:00 17.1 5 Noroeste 9 Noroeste 0 -- -- 68
2019-06-01 01:00:00 16.6 2 Nordeste 5 Sudoeste 0 -- -- 80
2019-06-01 00:00:00 17 3 Norte 5 Norte 0 -- -- 84
2019-05-31 23:00:00 17.6 0 Calma 8 Sudoeste 0 -- -- 81
2019-05-31 22:00:00 18.2 3 Sudoeste 16 Oeste 0 -- -- 78
2019-05-31 21:00:00 18.5 4 Sur 21 Sudoeste 0 -- -- 82
2019-05-31 20:00:00 20.3 9 Sur 23 Sur 0 -- -- 71
2019-05-31 19:00:00 21 8 Sur 17 Sudoeste 0 -- -- 73
2019-05-31 18:00:00 22.4 9 Sur 13 Sur 0 -- -- 68
2019-05-31 17:00:00 23.2 9 Sur 19 Sur 0 -- -- 66
2019-05-31 16:00:00 24.4 11 Sur 22 Sudoeste 0 -- -- 59
2019-05-31 15:00:00 25.2 7 Sur 20 Sur 0 -- -- 53
2019-05-31 14:00:00 23.7 8 Sur 13 Sudoeste 0 -- -- 59
2019-05-31 13:00:00 22 6 Sudeste 10 Sur 0 -- -- 67
2019-05-31 12:00:00 23.5 8 Sur 16 Sudoeste 0 -- -- 61
2019-05-31 11:00:00 23.5 9 Sudoeste 17 Sudoeste 0 -- -- 48
2019-05-31 10:00:00 22.6 6 Sudoeste 13 Noroeste 0 -- -- 49
2019-05-31 09:00:00 20.9 6 Noroeste 14 Noroeste 0 -- -- 58
2019-05-31 08:00:00 19.2 9 Norte 15 Noroeste 0 -- -- 59
2019-05-31 07:00:00 16.6 8 Noroeste 11 Noroeste 0 -- -- 62
2019-05-31 06:00:00 15.7 0 Calma 8 Sudeste 0 -- -- 70
2019-05-31 05:00:00 16.8 3 Noroeste 19 Noroeste 0 -- -- 60
2019-05-31 04:00:00 17.7 14 Noroeste 19 Noroeste 0 -- -- 56
2019-05-31 03:00:00 17.5 14 Noroeste 19 Noroeste 0 -- -- 59
2019-05-31 02:00:00 17.6 4 Este 19 Noroeste 0 -- -- 68
2019-05-31 01:00:00 17.9 11 Noroeste 16 Noroeste 0 -- -- 59
2019-05-31 00:00:00 17.9 11 Noroeste 17 Noroeste 0 -- -- 60
2019-05-30 23:00:00 17.4 5 Oeste 18 Oeste 0 -- -- 65
2019-05-30 22:00:00 17.2 4 Oeste 17 Oeste 0 -- -- 80
2019-05-30 21:00:00 17.5 9 Sudoeste 21 Sudoeste 0 -- -- 83
2019-05-30 20:00:00 18.6 10 Sudoeste 20 Sur 0 -- -- 74
2019-05-30 19:00:00 20.6 11 Sur 17 Sudoeste 0 -- -- 72
2019-05-30 18:00:00 21.8 7 Sur 16 Sudoeste 0 -- -- 70
2019-05-30 17:00:00 22.3 8 Sur 16 Sudoeste 0 -- -- 69
2019-05-30 16:00:00 22.4 8 Sur 15 Sur 0 -- -- 69
2019-05-30 15:00:00 22.7 8 Sur 24 Sur 0 -- -- 68
2019-05-30 14:00:00 21.5 16 Sur 29 Sudoeste 0 -- -- 71
2019-05-30 13:00:00 21.7 14 Sur 24 Sudoeste 0 -- -- 71
2019-05-30 12:00:00 21.7 9 Sur 14 Sudoeste 0 -- -- 63
2019-05-30 11:00:00 21 8 Sur 13 Sur 0 -- -- 62
2019-05-30 10:00:00 20.2 6 Sur 11 Sudoeste 0 -- -- 58
2019-05-30 09:00:00 18.1 5 Norte 16 Norte 0 -- -- 63
2019-05-30 08:00:00 16.1 4 Nordeste 16 Norte 0 -- -- 71
2019-05-30 07:00:00 14.6 11 Norte 15 Norte 0 -- -- 73
2019-05-30 06:00:00 13.3 3 Norte 8 Noroeste 0 -- -- 90
2019-05-30 05:00:00 13.5 4 Norte 13 Noroeste 0 -- -- 86
2019-05-30 04:00:00 14.6 4 Nordeste 22 Noroeste 0 -- -- 84
2019-05-30 03:00:00 15 14 Noroeste 18 Noroeste 0 -- -- 84
2019-05-30 02:00:00 15.2 11 Noroeste 15 Noroeste 0 -- -- 85
2019-05-30 01:00:00 15.5 5 Oeste 13 Oeste 0 -- -- 84
2019-05-30 00:00:00 15.5 3 Sur 11 Sudoeste 0 -- -- 87
2019-05-29 23:00:00 16.1 3 Sudoeste 14 Sudoeste 0 -- -- 85
2019-05-29 22:00:00 16.6 6 Sudoeste 16 Sur 0 -- -- 82
2019-05-29 21:00:00 17.1 8 Sur 17 Sur 0 -- -- 82
2019-05-29 20:00:00 18.1 5 Sur 16 Sudoeste 0 -- -- 79
2019-05-29 19:00:00 19.2 7 Sur 20 Sur 0 -- -- 76
2019-05-29 18:00:00 20 10 Sur 27 Sur 0 -- -- 73
2019-05-29 17:00:00 20.4 17 Sur 32 Sur 0 -- -- 69
2019-05-29 16:00:00 21.9 12 Sur 19 Sur 0 -- -- 64
2019-05-29 15:00:00 21.5 9 Sur 17 Sudoeste 0 -- -- 72
2019-05-29 14:00:00 21.6 9 Sur 15 Sur 0 -- -- 70
2019-05-29 13:00:00 21.1 8 Sur 14 Sur 0 -- -- 74
2019-05-29 12:00:00 20.6 7 Sur 18 Sudoeste 0 -- -- 74
2019-05-29 11:00:00 20.2 8 Sur 19 Sudoeste 0 -- -- 73
2019-05-29 10:00:00 17.9 7 Oeste 14 Oeste 0 -- -- 70
2019-05-29 09:00:00 16.6 7 Norte 17 Noroeste 0 -- -- 80
2019-05-29 08:00:00 14.7 12 Norte 21 Noroeste 0 -- -- 84
2019-05-29 07:00:00 13.7 16 Noroeste 25 Norte 0 -- -- 83
2019-05-29 06:00:00 13.1 15 Noroeste 21 Noroeste 0 -- -- 86
2019-05-29 05:00:00 13 9 Noroeste 15 Norte 0 -- -- 81
2019-05-29 04:00:00 13.3 8 Norte 14 Noroeste 0 -- -- 89
2019-05-29 03:00:00 13.7 8 Noroeste 15 Noroeste 0 -- -- 96
2019-05-29 02:00:00 13.7 5 Noroeste 13 Norte 0.2 -- -- 97
2019-05-29 01:00:00 13.5 8 Norte 14 Norte 0.2 -- -- 97
2019-05-29 00:00:00 13.5 5 Norte 15 Norte 3.6 -- -- 97
2019-05-28 23:00:00 13.8 9 Norte 16 Noroeste 1.6 -- -- 96
2019-05-28 22:00:00 13.9 7 Noroeste 19 Noroeste 2.6 -- -- 94
2019-05-28 21:00:00 14.3 11 Noroeste 22 Noroeste 0.4 -- -- 93
2019-05-28 20:00:00 14.7 10 Oeste 21 Noroeste 1.2 -- -- 88
2019-05-28 19:00:00 17.2 5 Noroeste 8 Noroeste 0.2 -- -- 79
2019-05-28 18:00:00 18.3 3 Sur 16 Sur 0 -- -- 69
2019-05-28 17:00:00 18.8 7 Sudoeste 19 Sur 0 -- -- 70
2019-05-28 16:00:00 20.5 6 Sur 12 Sur 0 -- -- 65
2019-05-28 15:00:00 21.3 6 Sur 10 Sur 0 -- -- 61
2019-05-28 14:00:00 20.5 6 Sur 13 Sudeste 0 -- -- 65
2019-05-28 13:00:00 20.3 8 Sudeste 14 Sudeste 0 -- -- 66
2019-05-28 12:00:00 18.5 6 Sur 12 Sudeste 0 -- -- 72
2019-05-28 11:00:00 17.2 4 Sudeste 8 Este 0 -- -- 75
2019-05-28 10:00:00 17.3 4 Sur 6 Sur 0 -- -- 81
2019-05-28 09:00:00 17 4 Sur 8 Sur 0 -- -- 88
2019-05-28 08:00:00 16.1 3 Este 9 Nordeste 0 -- -- 92
2019-05-28 07:00:00 15.6 5 Noroeste 8 Norte 0 -- -- 95
2019-05-28 06:00:00 15.7 2 Norte 5 Noroeste 0 -- -- 96
2019-05-28 05:00:00 15.7 2 Norte 5 Este 0 -- -- 95
2019-05-28 04:00:00 15.6 2 Norte 5 Norte 0 -- -- 94
2019-05-28 03:00:00 16 3 Noroeste 11 Sudoeste 0 -- -- 94
2019-05-28 02:00:00 16.6 0 Calma 5 Sur 0 -- -- 92
2019-05-28 01:00:00 16.9 3 Este 14 Sudoeste 0 -- -- 91
2019-05-28 00:00:00 16.8 4 Sudoeste 9 Sudoeste 0 -- -- 89